• Join FlightAware (Why Join?)
  • Login
  • US Flag 
02:16AM EDT


 

Airport Tracker/Info


-or-


 

Live Flight TrackerFlight Track Log ✈ UAL1208 ✈ 02-Jul-2013 ✈ KLAS - KEWR

Flight Track Log - Related Links

Times and Time Zones

All times are in EDT time to prevent confusion due to time zone crossing. See the UAL1208 flight status page for this flight to view local times or setup timezone preferences in your user account.

Time Position Orientation Groundspeed Altitude Reporting Facility
EDT Latitude Longitude Course Direction KTS MPH feet Rate Location/Type
11:40AM 36.0770 -115.0600 92° East 244 281 3,800  Level FlightAware
11:40AM 36.0760 -115.0280 92° East 262 302 4,300 1,920 Climbing FlightAware
11:41AM 36.0760 -114.9880 90° East 253 291 5,400 1,980 Climbing FlightAware
11:41AM 36.0770 -114.9430 88° East 268 308 6,200 1,380 Climbing FlightAware
11:42AM 36.0850 -114.9010 77° East 285 328 6,800 1,500 Climbing FlightAware
11:42AM 36.0880 -114.8810 79° East 289 333 7,200 2,100 Climbing FlightAware
11:42AM 36.0960 -114.8320 79° East 292 336 8,200 2,040 Climbing FlightAware
11:43AM 36.1050 -114.7800 78° East 294 338 9,300 1,860 Climbing FlightAware
11:44AM 36.1170 -114.7100 78° East 305 351 10,500 1,260 Climbing FlightAware
11:44AM 36.1280 -114.6410 79° East 337 388 11,000 900 Climbing FlightAware
11:45AM 36.1410 -114.5640 78° East 361 415 11,700 1,260 Climbing FlightAware
11:45AM 36.1540 -114.4850 78° East 372 428 12,700 1,560 Climbing FlightAware
11:46AM 36.1700 -114.3870 79° East 383 441 13,900 1,620 Climbing FlightAware
11:47AM 36.1830 -114.3060 79° East 387 445 15,000 1,740 Climbing FlightAware
11:48AM 36.1980 -114.2040 80° East 392 451 16,400 1,740 Climbing FlightAware
11:48AM 36.2100 -114.1140 81° East 396 456 17,600 1,740 Climbing FlightAware
11:49AM 36.2200 -114.0220 82° East 399 459 18,800 1,620 Climbing FlightAware
11:50AM 36.2310 -113.9280 82° East 408 470 19,900 1,560 Climbing FlightAware
11:50AM 36.2430 -113.8320 81° East 414 476 21,000 1,500 Climbing FlightAware
11:51AM 36.2550 -113.7270 82° East 421 484 22,000 1,200 Climbing FlightAware
11:52AM 36.2660 -113.6280 82° East 430 495 22,800 1,200 Climbing FlightAware
11:53AM 36.2790 -113.5200 81° East 436 502 23,800 1,380 Climbing FlightAware
11:53AM 36.2900 -113.4260 82° East 436 502 24,700 1,260 Climbing FlightAware
11:54AM 36.3010 -113.3240 82° East 441 507 25,500 1,140 Climbing FlightAware
11:54AM 36.3170 -113.2220 79° East 444 511 26,300 1,020 Climbing FlightAware
11:55AM 36.3470 -113.1320 67° East 447 514 26,900 1,020 Climbing FlightAware
11:56AM 36.3830 -113.0360 65° Northeast 448 516 27,700 960 Climbing FlightAware
11:57AM 36.4190 -112.9380 65° Northeast 451 519 28,300 1,020 Climbing FlightAware
11:57AM 36.4580 -112.8320 65° Northeast 451 519 29,200 1,020 Climbing FlightAware
11:58AM 36.4960 -112.7300 65° Northeast 454 522 29,800 840 Climbing FlightAware
11:59AM 36.5290 -112.6410 65° Northeast 454 522 30,400 900 Climbing FlightAware
11:59AM 36.5620 -112.5490 66° East 453 521 31,000 480 Climbing FlightAware
12:00PM 36.5940 -112.4620 65° Northeast 452 520 31,000  Level FlightAware
12:01PM 36.6330 -112.3520 66° East 451 519 31,000  Level FlightAware
12:01PM 36.6640 -112.2670 66° East 450 518 31,000  Level FlightAware
12:02PM 36.6970 -112.1770 65° Northeast 449 517 31,000  Level FlightAware
12:03PM 36.7360 -112.0700 66° East 446 513 31,000 240 Level FlightAware
12:03PM 36.7700 -111.9750 66° East 448 516 31,400 840 Climbing FlightAware
12:04PM 36.8070 -111.8730 66° East 440 506 32,200 1,140 Climbing FlightAware
12:05PM 36.8390 -111.7820 66° East 437 503 33,000 600 Climbing FlightAware
12:05PM 36.8720 -111.6890 66° East 438 504 33,000  Level FlightAware
12:06PM 36.9080 -111.5870 66° East 437 503 33,000  Level FlightAware
12:07PM 36.9440 -111.4870 66° East 437 503 33,000  Level FlightAware
12:08PM 36.9760 -111.3950 66° East 434 499 33,000  Level FlightAware
12:08PM 37.0120 -111.2920 66° East 435 501 33,000  Level FlightAware
12:09PM 37.0450 -111.1990 66° East 436 502 33,000  Level FlightAware
12:10PM 37.0760 -111.1090 67° East 436 502 33,000  Level FlightAware
12:11PM 37.1210 -110.9830 66° East 435 501 33,000  Level FlightAware
12:11PM 37.1460 -110.9120 66° East 435 501 33,000  Level FlightAware
12:12PM 37.1890 -110.7900 66° East 435 501 33,000  Level FlightAware
12:13PM 37.2150 -110.7180 66° East 435 501 33,000  Level FlightAware
12:14PM 37.2480 -110.6240 66° East 435 501 33,000  Level FlightAware
12:14PM 37.2720 -110.5570 66° East 435 501 33,000  Level FlightAware
12:15PM 37.3030 -110.4690 66° East 435 501 33,000  Level FlightAware
12:16PM 37.3350 -110.3780 66° East 435 501 33,000  Level FlightAware
12:16PM 37.3600 -110.3070 66° East 435 501 33,000  Level FlightAware
12:17PM 37.3940 -110.2110 66° East 435 501 33,000  Level FlightAware
12:18PM 37.4200 -110.1380 66° East 435 501 33,000  Level FlightAware
12:19PM 37.5200 -109.8110 69° East 443 510 33,000  Level FlightAware
12:19PM 37.5480 -109.7240 68° East 443 510 33,000  Level FlightAware
12:20PM 37.5820 -109.6240 67° East 442 509 33,000  Level FlightAware
12:21PM 37.6170 -109.5160 68° East 441 507 33,000  Level FlightAware
12:22PM 37.6510 -109.4150 67° East 439 505 33,000  Level FlightAware
12:22PM 37.6900 -109.2970 67° East 436 502 33,000  Level FlightAware
12:23PM 37.7230 -109.1960 68° East 435 501 33,000  Level FlightAware
12:24PM 37.7550 -109.0970 68° East 436 502 33,000  Level FlightAware
12:25PM 37.7950 -108.9740 68° East 436 502 33,000  Level FlightAware
12:26PM 37.8420 -108.8340 67° East 436 502 33,000  Level FlightAware
12:26PM 37.8760 -108.7400 65° Northeast 436 502 33,000  Level FlightAware
12:27PM 37.9000 -108.6700 66° East 437 503 33,000  Level FlightAware
12:28PM 37.9350 -108.5690 66° East 436 502 33,000  Level FlightAware
12:28PM 37.9690 -108.4720 66° East 435 501 33,000  Level FlightAware
12:29PM 37.9980 -108.3880 66° East 435 501 33,000  Level FlightAware
12:30PM 38.0420 -108.2610 66° East 435 501 33,000  Level FlightAware
12:31PM 38.0720 -108.1710 67° East 434 499 33,000  Level FlightAware
12:31PM 38.1180 -108.0390 66° East 435 501 33,000  Level FlightAware
12:32PM 38.1490 -107.9470 67° East 434 499 33,000  Level FlightAware
12:33PM 38.1780 -107.8620 67° East 435 501 33,000  Level FlightAware
12:33PM 38.2150 -107.7530 67° East 435 501 33,000  Level FlightAware
12:34PM 38.2430 -107.6670 67° East 433 498 33,000  Level FlightAware
12:35PM 38.2790 -107.5600 67° East 429 494 33,000  Level FlightAware
12:36PM 38.3190 -107.4420 67° East 427 491 33,000  Level FlightAware
12:36PM 38.3430 -107.3680 68° East 426 490 33,000  Level FlightAware
12:37PM 38.3740 -107.2760 67° East 425 489 33,000  Level FlightAware
12:38PM 38.4080 -107.1740 67° East 424 488 33,000  Level FlightAware
12:38PM 38.4390 -107.0790 67° East 423 487 33,000  Level FlightAware
12:39PM 38.4630 -106.9830 72° East 428 493 33,000  Level FlightAware
12:40PM 38.4860 -106.8700 75° East 427 491 33,000  Level FlightAware
12:40PM 38.5011 -106.7940 76° East 427 491 33,000  Level FlightAware ADS-B
12:41PM 38.5159 -106.7190 76° East 428 493 33,000  Level FlightAware ADS-B
12:41PM 38.5317 -106.6390 76° East 429 494 33,000  Level FlightAware ADS-B
12:42PM 38.5471 -106.5600 76° East 428 493 33,000  Level FlightAware ADS-B
12:42PM 38.5648 -106.4700 76° East 428 493 33,000  Level FlightAware ADS-B
12:43PM 38.5797 -106.3920 76° East 428 493 33,000  Level FlightAware ADS-B
12:43PM 38.5940 -106.3190 76° East 427 491 33,000  Level FlightAware ADS-B
12:44PM 38.6096 -106.2380 76° East 425 489 33,000  Level FlightAware ADS-B
12:45PM 38.6242 -106.1630 76° East 426 490 33,000  Level FlightAware ADS-B
12:45PM 38.6393 -106.0840 76° East 427 491 33,000  Level FlightAware ADS-B
12:46PM 38.6545 -106.0040 76° East 428 493 33,000  Level FlightAware ADS-B
12:46PM 38.6686 -105.9300 76° East 429 494 33,000  Level FlightAware ADS-B
12:47PM 38.6832 -105.8530 76° East 429 494 33,000  Level FlightAware ADS-B
12:47PM 38.6976 -105.7760 77° East 431 496 33,000  Level FlightAware ADS-B
12:48PM 38.7116 -105.7020 76° East 432 497 33,000  Level FlightAware ADS-B
12:48PM 38.7256 -105.6270 77° East 431 496 33,000  Level FlightAware ADS-B
12:49PM 38.7396 -105.5520 77° East 430 495 33,000  Level FlightAware ADS-B
12:49PM 38.7539 -105.4750 77° East 429 494 33,000  Level FlightAware ADS-B
12:50PM 38.7680 -105.3990 77° East 429 494 33,000  Level FlightAware ADS-B
12:50PM 38.7816 -105.3240 77° East 429 494 33,000  Level FlightAware ADS-B
12:51PM 38.7953 -105.2500 77° East 429 494 33,000  Level FlightAware ADS-B
12:51PM 38.8090 -105.1750 77° East 428 493 33,000  Level FlightAware ADS-B
12:52PM 38.8231 -105.0980 77° East 428 493 33,000  Level FlightAware ADS-B
12:52PM 38.8367 -105.0230 77° East 428 493 33,000  Level FlightAware ADS-B
12:53PM 38.8505 -104.9460 77° East 429 494 33,000  Level FlightAware ADS-B
12:53PM 38.8640 -104.8710 77° East 429 494 33,000  Level FlightAware ADS-B
12:54PM 38.8775 -104.7960 77° East 429 494 33,000  Level FlightAware ADS-B
12:54PM 38.8919 -104.7160 77° East 429 494 33,000  Level FlightAware ADS-B
12:55PM 38.9055 -104.6390 77° East 428 493 33,000  Level FlightAware ADS-B
12:55PM 38.9198 -104.5580 77° East 427 491 33,000  Level FlightAware ADS-B
12:56PM 38.9327 -104.4840 77° East 427 491 33,000  Level FlightAware ADS-B
12:56PM 38.9460 -104.4090 77° East 426 490 33,000  Level FlightAware ADS-B
12:57PM 38.9591 -104.3340 77° East 426 490 33,000  Level FlightAware ADS-B
12:57PM 38.9722 -104.2600 77° East 426 490 33,000  Level FlightAware ADS-B
12:58PM 38.9852 -104.1850 77° East 427 491 33,000  Level FlightAware ADS-B
12:58PM 38.9982 -104.1090 78° East 427 491 33,000  Level FlightAware ADS-B
12:59PM 39.0110 -104.0350 77° East 426 490 33,000  Level FlightAware ADS-B
12:59PM 39.0237 -103.9610 78° East 427 491 33,000  Level FlightAware ADS-B
01:00PM 39.0373 -103.8810 78° East 427 491 33,000  Level FlightAware ADS-B
01:00PM 39.0501 -103.8060 78° East 427 491 33,000  Level FlightAware ADS-B
01:01PM 39.0628 -103.7310 78° East 427 491 33,000  Level FlightAware ADS-B
01:01PM 39.0756 -103.6550 78° East 426 490 33,000  Level FlightAware ADS-B
01:02PM 39.0881 -103.5800 78° East 425 489 33,000  Level FlightAware ADS-B
01:03PM 39.1008 -103.5040 78° East 424 488 33,000  Level FlightAware ADS-B
01:03PM 39.1132 -103.4290 78° East 423 487 33,000  Level FlightAware ADS-B
01:04PM 39.1262 -103.3510 78° East 422 486 33,000  Level FlightAware ADS-B
01:04PM 39.1387 -103.2760 78° East 422 486 33,000  Level FlightAware ADS-B
01:05PM 39.1508 -103.2020 78° East 421 484 33,000  Level FlightAware ADS-B
01:05PM 39.1630 -103.1280 78° East 420 483 33,000  Level FlightAware ADS-B
01:06PM 39.1750 -103.0540 78° East 419 482 33,000  Level FlightAware ADS-B
01:06PM 39.1869 -102.9810 78° East 419 482 33,000  Level FlightAware ADS-B
01:07PM 39.1993 -102.9040 78° East 420 483 33,000  Level FlightAware ADS-B
01:07PM 39.2112 -102.8300 78° East 421 484 33,000  Level FlightAware ADS-B
01:08PM 39.2231 -102.7560 78° East 422 486 33,000 180 Level FlightAware ADS-B
01:08PM 39.2351 -102.6810 78° East 427 491 33,200 720 Climbing FlightAware ADS-B
01:09PM 39.2472 -102.6040 79° East 424 488 33,800 1,080 Climbing FlightAware ADS-B
01:09PM 39.2591 -102.5290 78° East 421 484 34,300 1,080 Climbing FlightAware ADS-B
01:10PM 39.2706 -102.4550 79° East 417 480 34,900 660 Climbing FlightAware ADS-B
01:10PM 39.2822 -102.3810 79° East 418 481 35,000 60 Climbing FlightAware ADS-B
01:11PM 39.2938 -102.3070 79° East 418 481 35,000  Level FlightAware ADS-B
01:11PM 39.3053 -102.2340 78° East 418 481 35,000  Level FlightAware ADS-B
01:12PM 39.3166 -102.1610 79° East 418 481 35,000  Level FlightAware ADS-B
01:12PM 39.3283 -102.0850 79° East 418 481 35,000  Level FlightAware ADS-B
01:13PM 39.3399 -102.0090 79° East 418 481 35,000  Level FlightAware ADS-B
01:13PM 39.3512 -101.9340 79° East 417 480 35,000  Level FlightAware ADS-B
01:14PM 39.3624 -101.8610 79° East 416 479 35,000  Level FlightAware ADS-B
01:14PM 39.3737 -101.7870 79° East 415 478 35,000  Level FlightAware ADS-B
01:15PM 39.3848 -101.7160 79° East 412 474 35,000  Level FlightAware ADS-B
01:15PM 39.3966 -101.6670 73° East 403 464 35,000  Level FlightAware ADS-B
01:16PM 39.4185 -101.6020 66° East 398 458 35,000  Level FlightAware ADS-B
01:16PM 39.4411 -101.5350 66° East 400 460 35,000  Level FlightAware ADS-B
01:17PM 39.4634 -101.4680 67° East 401 461 35,000  Level FlightAware ADS-B
01:17PM 39.4857 -101.4020 66° East 401 461 35,000  Level FlightAware ADS-B
01:18PM 39.5090 -101.3330 66° East 402 463 35,000  Level FlightAware ADS-B
01:18PM 39.5322 -101.2630 67° East 404 465 35,000  Level FlightAware ADS-B
01:19PM 39.5561 -101.1920 66° East 407 468 35,000  Level FlightAware ADS-B
01:19PM 39.5786 -101.1240 67° East 409 471 35,000  Level FlightAware ADS-B
01:20PM 39.5986 -101.0625 67° East 408 470 35,000  Level Denver Center
01:21PM 39.6417 -100.9328 67° East 409 471 35,000  Level Denver Center
01:22PM 39.6925 -100.7778 67° East 416 479 35,000  Level Denver Center
01:23PM 39.7372 -100.6417 67° East 423 487 35,000  Level Denver Center
01:24PM 39.7878 -100.4828 67° East 427 491 35,000  Level Denver Center
01:25PM 39.8322 -100.3481 67° East 427 491 35,000  Level Denver Center
01:31PM 40.1232 -99.4348 67° East 432 497 35,000  Level FlightAware ADS-B
01:32PM 40.1461 -99.3613 68° East 432 497 35,000  Level FlightAware ADS-B
01:32PM 40.1688 -99.2880 68° East 432 497 35,000  Level FlightAware ADS-B
01:33PM 40.1923 -99.2122 68° East 431 496 35,000  Level FlightAware ADS-B
01:33PM 40.2148 -99.1396 68° East 431 496 35,000  Level FlightAware ADS-B
01:34PM 40.2374 -99.0665 68° East 431 496 35,000  Level FlightAware ADS-B
01:34PM 40.2600 -98.9932 68° East 431 496 35,000  Level FlightAware ADS-B
01:35PM 40.2845 -98.9133 68° East 431 496 35,000  Level FlightAware ADS-B
01:35PM 40.3073 -98.8389 68° East 431 496 35,000  Level FlightAware ADS-B
01:36PM 40.3296 -98.7660 68° East 430 495 35,000  Level FlightAware ADS-B
01:36PM 40.3517 -98.6936 68° East 430 495 35,000  Level FlightAware ADS-B
01:37PM 40.3751 -98.6165 68° East 430 495 35,000  Level FlightAware ADS-B
01:37PM 40.3970 -98.5440 68° East 430 495 35,000  Level FlightAware ADS-B
01:38PM 40.4201 -98.4675 68° East 430 495 35,000  Level FlightAware ADS-B
01:38PM 40.4422 -98.3943 68° East 430 495 35,000  Level FlightAware ADS-B
01:39PM 40.4642 -98.3211 68° East 431 496 35,000  Level FlightAware ADS-B
01:39PM 40.4873 -98.2441 68° East 432 497 35,000  Level FlightAware ADS-B
01:40PM 40.5090 -98.1711 69° East 432 497 35,000  Level FlightAware ADS-B
01:40PM 40.5315 -98.0953 69° East 431 496 35,000  Level FlightAware ADS-B
01:41PM 40.5532 -98.0222 69° East 431 496 35,000  Level FlightAware ADS-B
01:41PM 40.5759 -97.9458 69° East 431 496 35,000  Level FlightAware ADS-B
01:42PM 40.5981 -97.8706 69° East 430 495 35,000  Level FlightAware ADS-B
01:42PM 40.6199 -97.7968 69° East 431 496 35,000  Level FlightAware ADS-B
01:43PM 40.6414 -97.7235 69° East 430 495 35,000  Level FlightAware ADS-B
01:43PM 40.6629 -97.6499 69° East 430 495 35,000  Level FlightAware ADS-B
01:44PM 40.6847 -97.5754 69° East 428 493 35,000  Level FlightAware ADS-B
01:44PM 40.7061 -97.5018 69° East 428 493 35,000  Level FlightAware ADS-B
01:45PM 40.7281 -97.4260 69° East 428 493 35,000  Level FlightAware ADS-B
01:45PM 40.7494 -97.3524 69° East 427 491 35,000  Level FlightAware ADS-B
01:46PM 40.7706 -97.2789 69° East 427 491 35,000  Level FlightAware ADS-B
01:46PM 40.7919 -97.2048 69° East 427 491 35,000  Level FlightAware ADS-B
01:47PM 40.8130 -97.1314 69° East 428 493 35,000  Level FlightAware ADS-B
01:47PM 40.8345 -97.0565 69° East 427 491 35,000  Level FlightAware ADS-B
01:48PM 40.8558 -96.9818 69° East 427 491 35,000  Level FlightAware ADS-B
01:48PM 40.8766 -96.9087 69° East 427 491 35,000  Level FlightAware ADS-B
01:49PM 40.8975 -96.8347 69° East 426 490 35,000  Level FlightAware ADS-B
01:49PM 40.9185 -96.7605 69° East 426 490 35,000  Level FlightAware ADS-B
01:50PM 40.9246 -96.7355 72° East 428 493 35,000  Level FlightAware ADS-B
01:50PM 40.9388 -96.6584 76° East 431 496 35,000  Level FlightAware ADS-B
01:51PM 40.9548 -96.5698 77° East 431 496 35,000  Level FlightAware ADS-B
01:51PM 40.9686 -96.4924 77° East 429 494 35,000  Level FlightAware ADS-B
01:52PM 40.9825 -96.4141 77° East 429 494 35,000  Level FlightAware ADS-B
01:52PM 40.9961 -96.3375 77° East 428 493 35,000  Level FlightAware ADS-B
01:53PM 41.0097 -96.2604 77° East 428 493 35,000  Level FlightAware ADS-B
01:53PM 41.0230 -96.1842 77° East 427 491 35,000  Level FlightAware ADS-B
01:54PM 41.0364 -96.1076 77° East 426 490 35,000  Level FlightAware ADS-B
01:54PM 41.0498 -96.0316 77° East 426 490 35,000  Level FlightAware ADS-B
01:55PM 41.0631 -95.9553 77° East 426 490 35,000  Level FlightAware ADS-B
01:55PM 41.0763 -95.8792 77° East 429 494 35,000  Level FlightAware ADS-B
01:56PM 41.0901 -95.8001 77° East 430 495 35,000  Level FlightAware ADS-B
01:56PM 41.1032 -95.7227 77° East 429 494 35,000  Level FlightAware ADS-B
01:57PM 41.1164 -95.6451 77° East 431 496 35,000  Level FlightAware ADS-B
01:57PM 41.1297 -95.5668 77° East 433 498 35,000  Level FlightAware ADS-B
01:58PM 41.1431 -95.4882 77° East 435 501 35,000  Level FlightAware ADS-B
01:58PM 41.1563 -95.4094 77° East 436 502 35,000  Level FlightAware ADS-B
01:59PM 41.1698 -95.3288 77° East 437 503 35,000  Level FlightAware ADS-B
01:59PM 41.1830 -95.2493 78° East 438 504 35,000  Level FlightAware ADS-B
02:00PM 41.1965 -95.1678 78° East 439 505 35,000  Level FlightAware ADS-B
02:00PM 41.2099 -95.0875 77° East 441 507 35,000  Level FlightAware ADS-B
02:01PM 41.2240 -95.0019 78° East 443 510 35,000  Level FlightAware ADS-B
02:01PM 41.2370 -94.9219 78° East 445 512 35,000  Level FlightAware ADS-B
02:02PM 41.2502 -94.8406 78° East 447 514 35,000  Level FlightAware ADS-B
02:02PM 41.2636 -94.7583 78° East 448 516 35,000  Level FlightAware ADS-B
02:03PM 41.2767 -94.6776 78° East 450 518 35,000  Level FlightAware ADS-B
02:03PM 41.2899 -94.5962 78° East 452 520 35,000  Level FlightAware ADS-B
02:04PM 41.3030 -94.5142 78° East 453 521 35,000  Level FlightAware ADS-B
02:04PM 41.3162 -94.4322 78° East 455 524 35,000  Level FlightAware ADS-B
02:05PM 41.3292 -94.3499 78° East 457 526 35,000  Level FlightAware ADS-B
02:05PM 41.3424 -94.2661 78° East 459 528 35,000  Level FlightAware ADS-B
02:06PM 41.3555 -94.1825 78° East 460 529 35,000  Level FlightAware ADS-B
02:06PM 41.3686 -94.0991 78° East 460 529 35,000  Level FlightAware ADS-B
02:07PM 41.3819 -94.0142 78° East 458 527 35,000  Level FlightAware ADS-B
02:07PM 41.3946 -93.9307 79° East 457 526 35,000  Level FlightAware ADS-B
02:08PM 41.4073 -93.8472 79° East 458 527 35,000  Level FlightAware ADS-B
02:08PM 41.4109 -93.8174 81° East 458 527 35,000  Level FlightAware ADS-B
02:09PM 41.4184 -93.7306 83° East 459 528 35,000  Level FlightAware ADS-B
02:09PM 41.4256 -93.6455 84° East 460 529 35,000  Level FlightAware ADS-B
02:10PM 41.4328 -93.5616 83° East 460 529 35,000  Level FlightAware ADS-B
02:10PM 41.4402 -93.4739 84° East 458 527 35,000  Level FlightAware ADS-B
02:11PM 41.4472 -93.3900 84° East 456 525 35,000  Level FlightAware ADS-B
02:11PM 41.4562 -93.2819 84° East 456 525 35,000  Level FlightAware ADS-B
02:12PM 41.4640 -93.1880 84° East 455 524 35,000  Level FlightAware
02:12PM 41.4730 -93.0790 84° East 453 521 35,000  Level FlightAware
02:13PM 41.4830 -92.9560 84° East 453 521 35,000  Level FlightAware
02:14PM 41.4920 -92.8440 84° East 452 520 35,000  Level FlightAware
02:15PM 41.5000 -92.7350 84° East 451 519 35,000  Level FlightAware
02:15PM 41.5100 -92.6120 84° East 451 519 35,000  Level FlightAware
02:16PM 41.5180 -92.4970 85° East 449 517 35,000  Level FlightAware
02:17PM 41.5260 -92.3910 84° East 449 517 35,000  Level FlightAware
02:17PM 41.5360 -92.2690 84° East 449 517 35,000  Level FlightAware
02:18PM 41.5430 -92.1620 85° East 449 517 35,000  Level FlightAware
02:19PM 41.5520 -92.0430 84° East 448 516 35,000  Level FlightAware
02:20PM 41.5600 -91.9270 85° East 446 513 35,000  Level FlightAware
02:20PM 41.5670 -91.8280 85° East 444 511 35,000  Level FlightAware
02:21PM 41.5760 -91.6990 85° East 441 507 35,000  Level FlightAware
02:22PM 41.5860 -91.5530 85° East 440 506 35,000  Level FlightAware
02:22PM 41.5930 -91.4450 85° East 441 507 35,000  Level FlightAware
02:23PM 41.6000 -91.3450 85° East 442 509 35,000  Level FlightAware
02:24PM 41.6080 -91.2280 85° East 442 509 35,000  Level FlightAware
02:24PM 41.6150 -91.1140 85° East 442 509 35,000  Level FlightAware
02:25PM 41.6200 -91.0280 86° East 442 509 35,000  Level FlightAware
02:26PM 41.6280 -90.9100 85° East 441 507 35,000  Level FlightAware
02:26PM 41.6340 -90.8090 85° East 442 509 35,000  Level FlightAware
02:27PM 41.6410 -90.6950 85° East 442 509 35,000  Level FlightAware
02:28PM 41.6470 -90.5860 86° East 442 509 35,000  Level FlightAware
02:28PM 41.6550 -90.4590 85° East 441 507 35,000  Level FlightAware
02:29PM 41.6630 -90.3050 86° East 438 504 35,000  Level FlightAware
02:30PM 41.6700 -90.1960 85° East 437 503 35,000  Level FlightAware
02:31PM 41.6740 -90.1110 86° East 436 502 35,000  Level FlightAware
02:31PM 41.6810 -89.9810 86° East 440 506 35,000  Level FlightAware
02:32PM 41.6870 -89.8720 86° East 442 509 35,000  Level FlightAware
02:33PM 41.6930 -89.7540 86° East 442 509 35,000  Level FlightAware
02:33PM 41.6990 -89.6450 86° East 440 506 35,000  Level FlightAware
02:34PM 41.7050 -89.5290 86° East 440 506 35,000  Level FlightAware
02:35PM 41.7100 -89.4110 87° East 440 506 35,000  Level FlightAware
02:36PM 41.7160 -89.2970 86° East 438 504 35,000  Level FlightAware
02:36PM 41.7210 -89.1820 87° East 438 504 35,000  Level FlightAware
02:37PM 41.7260 -89.0740 86° East 439 505 35,000  Level FlightAware
02:38PM 41.7310 -88.9650 86° East 441 507 35,000  Level FlightAware
02:38PM 41.7370 -88.8500 86° East 443 510 35,000  Level FlightAware
02:39PM 41.7410 -88.7370 87° East 444 511 35,000  Level FlightAware
02:40PM 41.7470 -88.6100 86° East 443 510 35,000  Level FlightAware
02:40PM 41.7510 -88.5000 87° East 444 511 35,000  Level FlightAware
02:41PM 41.7560 -88.3920 86° East 443 510 35,000  Level FlightAware
02:42PM 41.7610 -88.2680 87° East 442 509 35,000  Level FlightAware
02:42PM 41.7640 -88.1730 88° East 442 509 35,000  Level FlightAware
02:43PM 41.7680 -88.0710 87° East 443 510 35,000  Level FlightAware
02:44PM 41.7730 -87.9360 87° East 443 510 35,000  Level FlightAware
02:44PM 41.7760 -87.8470 87° East 444 511 35,000  Level FlightAware
02:45PM 41.7800 -87.7400 87° East 444 511 35,000  Level FlightAware
02:46PM 41.7840 -87.6220 87° East 445 512 35,000  Level FlightAware
02:46PM 41.7870 -87.5150 88° East 446 513 35,000  Level FlightAware
02:47PM 41.7910 -87.4070 87° East 446 513 35,000  Level FlightAware
02:48PM 41.7950 -87.2750 88° East 447 514 35,000  Level FlightAware
02:49PM 41.7980 -87.1470 88° East 447 514 35,000  Level FlightAware
02:49PM 41.8010 -87.0380 88° East 449 517 35,000  Level FlightAware
02:50PM 41.8050 -86.9250 87° East 450 518 35,000  Level FlightAware
02:51PM 41.8080 -86.8020 88° East 452 520 35,000  Level FlightAware
02:51PM 41.8110 -86.6840 88° East 455 524 35,000  Level FlightAware
02:52PM 41.8140 -86.5610 88° East 456 525 35,000  Level FlightAware
02:53PM 41.8160 -86.4530 89° East 457 526 35,000  Level FlightAware
02:54PM 41.8190 -86.3330 88° East 454 522 35,000  Level FlightAware
02:54PM 41.8210 -86.2260 89° East 452 520 35,000  Level FlightAware
02:55PM 41.8240 -86.1000 88° East 453 521 35,000  Level FlightAware
02:56PM 41.8260 -85.9790 89° East 454 522 35,000  Level FlightAware
02:56PM 41.8280 -85.8860 88° East 454 522 35,000  Level FlightAware
02:57PM 41.8300 -85.7610 89° East 455 524 35,000  Level FlightAware
02:58PM 41.8320 -85.6460 89° East 455 524 35,000  Level FlightAware
02:58PM 41.8330 -85.5620 89° East 455 524 35,000  Level FlightAware
02:59PM 41.8350 -85.4280 89° East 456 525 35,000  Level FlightAware
03:00PM 41.8370 -85.2760 89° East 457 526 35,000  Level FlightAware
03:01PM 41.8390 -85.1670 89° East 459 528 35,000  Level FlightAware
03:01PM 41.8400 -85.0590 89° East 461 531 35,000  Level FlightAware
03:02PM 41.8410 -84.9230 89° East 462 532 35,000  Level FlightAware
03:03PM 41.8420 -84.8450 89° East 462 532 35,000  Level FlightAware
03:03PM 41.8440 -84.7250 89° East 462 532 35,000  Level FlightAware
03:04PM 41.8440 -84.5490 90° East 467 537 35,000  Level FlightAware
03:05PM 41.8440 -84.4390 90° East 466 536 35,000  Level FlightAware
03:05PM 41.8400 -84.3240 93° East 467 537 35,000  Level FlightAware
03:06PM 41.8360 -84.1790 92° East 471 542 35,000  Level FlightAware
03:07PM 41.8340 -84.0820 92° East 472 543 35,000  Level FlightAware
03:08PM 41.8300 -83.9420 92° East 475 547 35,000  Level FlightAware
03:08PM 41.8270 -83.8130 92° East 477 549 35,000  Level FlightAware
03:09PM 41.8250 -83.7390 92° East 478 550 35,000  Level FlightAware
03:09PM 41.8220 -83.6190 92° East 479 551 35,000  Level FlightAware
03:11PM 41.8120 -83.3270 93° East 479 551 35,000  Level FlightAware
03:12PM 41.8080 -83.1940 92° East 478 550 35,000  Level FlightAware
03:13PM 41.8020 -83.0280 93° East 475 547 35,000  Level FlightAware
03:14PM 41.7970 -82.8700 92° East 472 543 35,000  Level FlightAware
03:14PM 41.7920 -82.7590 93° East 470 541 35,000  Level FlightAware
03:15PM 41.7870 -82.6210 93° East 470 541 35,000  Level FlightAware
03:16PM 41.7820 -82.5030 93° East 470 541 35,000  Level FlightAware
03:16PM 41.7780 -82.3990 93° East 471 542 35,000  Level FlightAware
03:17PM 41.7730 -82.2630 93° East 472 543 35,000  Level FlightAware
03:18PM 41.7690 -82.1630 93° East 474 545 35,000  Level FlightAware
03:18PM 41.7630 -82.0390 94° East 475 547 35,000  Level FlightAware
03:19PM 41.7580 -81.9110 93° East 476 548 35,000  Level FlightAware
03:20PM 41.7520 -81.7870 94° East 476 548 35,000  Level FlightAware
03:21PM 41.7460 -81.6530 93° East 476 548 35,000  Level FlightAware
03:21PM 41.7400 -81.5340 94° East 478 550 35,000  Level FlightAware
03:22PM 41.7350 -81.4250 93° East 480 552 35,000  Level FlightAware
03:23PM 41.7280 -81.2940 94° East 483 556 35,000  Level FlightAware
03:23PM 41.7220 -81.1710 94° East 486 559 35,000  Level FlightAware
03:24PM 41.7150 -81.0340 94° East 487 560 35,000  Level FlightAware
03:25PM 41.7080 -80.9100 94° East 486 559 35,000  Level FlightAware
03:25PM 41.7020 -80.7960 94° East 481 554 35,000  Level FlightAware
03:26PM 41.6950 -80.6660 94° East 476 548 35,000  Level FlightAware
03:27PM 41.6880 -80.5500 95° East 477 549 35,000  Level FlightAware
03:27PM 41.6810 -80.4210 94° East 478 550 35,000  Level FlightAware
03:28PM 41.6730 -80.2910 95° East 479 551 35,000  Level FlightAware
03:29PM 41.6670 -80.1830 94° East 478 550 35,000  Level FlightAware
03:30PM 41.6600 -80.0600 94° East 478 550 35,000  Level FlightAware
03:30PM 41.6510 -79.9220 95° East 477 549 35,000  Level FlightAware
03:31PM 41.6430 -79.7870 94° East 474 545 35,000  Level FlightAware
03:32PM 41.6350 -79.6760 95° East 474 545 35,000  Level FlightAware
03:33PM 41.6250 -79.5180 95° East 474 545 35,000  Level FlightAware
03:33PM 41.6170 -79.3960 95° East 474 545 35,000  Level FlightAware
03:34PM 41.6100 -79.2970 95° East 474 545 35,000  Level FlightAware
03:35PM 41.6200 -79.1630 84° East 496 571 35,000  Level FlightAware
03:35PM 41.6400 -79.0430 77° East 496 571 35,000  Level FlightAware
03:36PM 41.6610 -78.9150 78° East 491 565 35,000 -300 Level FlightAware
03:37PM 41.6730 -78.8060 82° East 486 559 34,600 -840 Descending FlightAware
03:37PM 41.6860 -78.6880 82° East 490 564 34,000 -900 Descending FlightAware
03:38PM 41.6990 -78.5720 81° East 493 567 33,400 -1,020 Descending FlightAware
03:39PM 41.7110 -78.4550 82° East 485 558 32,700 -1,080 Descending FlightAware
03:39PM 41.7170 -78.3280 86° East 478 550 32,000 -960 Descending FlightAware
03:40PM 41.7240 -78.1610 87° East 479 551 31,100 -660 Descending FlightAware
03:41PM 41.7200 -78.0550 93° East 467 537 31,000 -120 Descending FlightAware
03:41PM 41.7010 -77.9660 106° East 448 516 31,000  Level FlightAware
03:42PM 41.6700 -77.8630 112° Southeast 445 512 31,000  Level FlightAware
03:43PM 41.6330 -77.7400 112° Southeast 444 511 31,000  Level FlightAware
03:44PM 41.6050 -77.6450 111° Southeast 444 511 31,000  Level FlightAware
03:44PM 41.5700 -77.5060 109° East 451 519 31,000  Level FlightAware
03:45PM 41.5410 -77.3720 106° East 455 524 31,000  Level FlightAware
03:46PM 41.5180 -77.2650 106° East 461 531 31,000  Level FlightAware
03:47PM 41.4990 -77.1520 103° East 467 537 31,000 -180 Level FlightAware
03:47PM 41.4850 -77.0180 98° East 471 542 30,800 -1,080 Descending FlightAware
03:48PM 41.4630 -76.8950 103° East 444 511 29,400 -2,100 Descending FlightAware
03:49PM 41.4240 -76.7910 117° Southeast 429 494 27,900 -1,920 Descending FlightAware
03:50PM 41.3890 -76.6980 117° Southeast 423 487 26,700 -1,920 Descending FlightAware
03:50PM 41.3490 -76.5900 116° Southeast 415 478 25,200 -2,040 Descending FlightAware
03:51PM 41.3150 -76.5000 117° Southeast 407 468 23,900 -1,980 Descending FlightAware
03:51PM 41.2883 -76.4306 117° Southeast 411 473 22,900 -1,800 Descending FlightAware ADS-B
03:52PM 41.2460 -76.3190 117° Southeast 393 452 21,400 -1,800 Descending FlightAware
03:53PM 41.2234 -76.2610 117° Southeast 398 458 20,600 -1,980 Descending FlightAware ADS-B
03:53PM 41.1952 -76.1865 117° Southeast 383 441 19,500 -1,740 Descending FlightAware ADS-B
03:54PM 41.1709 -76.1236 117° Southeast 371 427 18,700 -1,440 Descending FlightAware ADS-B
03:54PM 41.1456 -76.0574 117° Southeast 371 427 18,000 -1,200 Descending FlightAware ADS-B
03:55PM 41.1312 -76.0075 111° Southeast 361 415 17,600 -1,080 Descending FlightAware ADS-B
03:55PM 41.1118 -75.9375 110° East 362 417 17,000 -1,080 Descending FlightAware ADS-B
03:56PM 41.0928 -75.8678 110° East 357 411 16,400 -1,080 Descending FlightAware ADS-B
03:57PM 41.0711 -75.7889 110° East 349 402 15,700 -1,380 Descending FlightAware ADS-B
03:57PM 41.0537 -75.7263 110° East 344 396 14,800 -1,740 Descending FlightAware ADS-B
03:58PM 41.0358 -75.6618 110° East 339 390 13,900 -1,620 Descending FlightAware ADS-B
03:58PM 41.0197 -75.6040 110° East 334 384 13,100 -1,080 Descending FlightAware ADS-B
03:59PM 41.0023 -75.5420 110° East 333 383 12,800 -300 Descending FlightAware ADS-B
03:59PM 40.9852 -75.4810 110° East 337 388 12,800  Level FlightAware ADS-B
04:00PM 40.9684 -75.4210 110° East 337 388 12,800 -660 Level FlightAware ADS-B
04:01PM 40.9435 -75.3321 110° East 331 381 12,000 -1,320 Descending FlightAware ADS-B
04:01PM 40.9232 -75.2599 110° East 322 371 11,000 -1,620 Descending FlightAware ADS-B
04:02PM 40.9056 -75.1979 111° Southeast 318 366 10,100 -1,200 Descending FlightAware ADS-B
04:02PM 40.8941 -75.1572 110° East 312 359 9,900 -660 Descending FlightAware ADS-B
04:02PM 40.8865 -75.1303 110° East 296 341 9,700 -1,140 Descending FlightAware ADS-B
04:03PM 40.8787 -75.1027 110° East 294 338 9,300 -1,500 Descending FlightAware ADS-B
04:03PM 40.8717 -75.0773 110° East 294 338 8,900 -1,560 Descending FlightAware ADS-B
04:03PM 40.8617 -75.0431 111° Southeast 292 336 8,400 -1,500 Descending FlightAware ADS-B
04:04PM 40.8541 -75.0161 110° East 292 336 8,000 -1,440 Descending FlightAware ADS-B
04:04PM 40.8458 -74.9866 110° East 291 335 7,600 -1,380 Descending FlightAware ADS-B
04:04PM 40.8410 -74.9571 102° East 291 335 7,200 -1,320 Descending FlightAware ADS-B
04:04PM 40.8417 -74.9461 85° East 294 338 7,100 -1,200 Descending FlightAware ADS-B
04:04PM 40.8428 -74.9387 79° East 298 343 7,000 -1,200 Descending FlightAware ADS-B
04:04PM 40.8451 -74.9278 74° East 301 346 6,900 -600 Descending FlightAware ADS-B
04:05PM 40.8508 -74.9012 74° East 298 343 6,800 -240 Descending FlightAware ADS-B
04:05PM 40.8567 -74.8740 74° East 297 342 6,800  Level FlightAware ADS-B
04:05PM 40.8629 -74.8452 74° East 296 341 6,800  Level FlightAware ADS-B
04:05PM 40.8688 -74.8176 74° East 295 339 6,800  Level FlightAware ADS-B
04:06PM 40.8820 -74.7553 74° East 296 341 6,800  Level FlightAware ADS-B
04:07PM 40.9015 -74.6616 75° East 294 338 6,800  Level FlightAware ADS-B
04:07PM 40.9082 -74.6292 75° East 294 338 6,800 -360 Level FlightAware ADS-B
04:08PM 40.9146 -74.5984 75° East 293 337 6,600 -1,320 Descending FlightAware ADS-B
04:08PM 40.9231 -74.5564 75° East 296 341 5,900 -1,740 Descending FlightAware ADS-B
04:08PM 40.9311 -74.5178 75° East 297 342 5,300 -1,380 Descending FlightAware ADS-B
04:08PM 40.9347 -74.5022 73° East 296 341 5,200 -960 Descending FlightAware ADS-B
04:09PM 40.9368 -74.4963 65° Northeast 295 339 5,100 -960 Descending FlightAware ADS-B
04:09PM 40.9479 -74.4731 58° Northeast 295 339 4,900 -300 Descending FlightAware ADS-B
04:10PM 40.9840 -74.4020 56° Northeast 284 327 4,800 -120 Descending FlightAware
04:10PM 41.0080 -74.3550 56° Northeast 284 327 4,800  Level FlightAware
04:10PM 41.0196 -74.3329 55° Northeast 289 333 4,800 -600 Level FlightAware ADS-B
04:11PM 41.0173 -74.2403 92° East 289 333 4,200 -600 Descending FlightAware ADS-B
04:12PM 40.9880 -74.1630 117° Southeast 274 315 3,800 -360 Descending FlightAware
04:13PM 40.9720 -74.1460 141° Southeast 256 295 3,800 -600 Level FlightAware
04:13PM 40.9470 -74.1300 154° Southeast 255 293 3,400 -900 Descending FlightAware
04:14PM 40.8950 -74.1020 158° South 244 281 2,800 -660 Descending FlightAware
04:14PM 40.8817 -74.0976 166° South 234 269 2,800  Level FlightAware ADS-B
04:14PM 40.8748 -74.0964 173° South 231 266 2,800 -240 Level FlightAware ADS-B
04:14PM 40.8489 -74.0927 174° South 225 259 2,700 -480 Descending FlightAware ADS-B
04:15PM 40.8361 -74.0910 174° South 213 245 2,500 -900 Descending FlightAware ADS-B
04:15PM 40.8214 -74.0889 174° South 205 236 2,300 -600 Descending FlightAware ADS-B
04:15PM 40.8161 -74.0886 178° South 199 229 2,300 -720 Level FlightAware ADS-B
04:15PM 40.8134 -74.0891 188° South 196 226 2,200 -840 Descending FlightAware ADS-B
04:15PM 40.7978 -74.0976 202° Southwest 194 223 2,000 -900 Descending FlightAware ADS-B
04:16PM 40.7860 -74.1054 207° Southwest 184 212 1,700 -960 Descending FlightAware ADS-B
04:16PM 40.7740 -74.1130 206° Southwest 173 199 1,500 -1,020 Descending FlightAware ADS-B
04:16PM 40.7635 -74.1194 205° Southwest 162 186 1,200 -1,020 Descending FlightAware ADS-B
04:16PM 40.7540 -74.1252 205° Southwest 154 177 1,000 -840 Descending FlightAware ADS-B
04:17PM 40.7485 -74.1288 206° Southwest 149 171 900 -600 Descending FlightAware ADS-B
04:17PM 40.7417 -74.1334 207° Southwest 146 168 800 -780 Descending FlightAware ADS-B
04:17PM 40.7292 -74.1414 206° Southwest 144 166 500 -900 Descending FlightAware ADS-B